createdAt,value
2022-09-06T00:00:31.865Z,3.50
2022-09-06T00:03:01.257Z,3.80
2022-09-06T00:05:31.792Z,3.50
2022-09-06T00:08:01.417Z,3.20
2022-09-06T00:10:31.557Z,4.00
2022-09-06T00:13:03.578Z,3.70
2022-09-06T00:18:02.035Z,3.70
2022-09-06T00:20:32.126Z,3.90
2022-09-06T00:23:03.369Z,3.80
2022-09-06T00:25:33.280Z,4.00
2022-09-06T00:28:04.654Z,3.70
2022-09-06T00:30:34.203Z,3.50
2022-09-06T00:33:03.000Z,3.70
2022-09-06T00:35:32.112Z,4.20
2022-09-06T00:38:02.137Z,3.80
2022-09-06T00:40:33.754Z,3.90
2022-09-06T00:43:02.558Z,3.90
2022-09-06T00:45:32.333Z,3.90
2022-09-06T00:48:04.909Z,3.50
2022-09-06T00:50:34.062Z,3.40
2022-09-06T00:53:03.122Z,4.10
2022-09-06T00:55:32.375Z,4.10
2022-09-06T00:58:03.531Z,3.20
2022-09-06T01:00:32.897Z,3.70
2022-09-06T01:03:01.797Z,3.80
2022-09-06T01:05:41.797Z,4.00
2022-09-06T01:08:19.848Z,3.50
2022-09-06T01:11:05.571Z,3.60
2022-09-06T01:13:44.766Z,3.80
2022-09-06T01:16:21.039Z,3.80
2022-09-06T01:19:26.880Z,3.80
2022-09-06T01:22:07.010Z,3.20
2022-09-06T01:24:56.621Z,3.50
2022-09-06T01:28:06.832Z,3.50
2022-09-06T01:30:42.755Z,3.50
2022-09-06T01:33:18.265Z,4.10
2022-09-06T01:35:53.073Z,3.60
2022-09-06T01:38:22.102Z,3.50
2022-09-06T01:40:51.163Z,3.90
2022-09-06T01:43:24.500Z,3.50
2022-09-06T01:46:00.993Z,3.70
2022-09-06T01:48:45.112Z,3.10
2022-09-06T01:51:23.091Z,3.30
2022-09-06T01:54:09.971Z,3.50
2022-09-06T01:56:49.005Z,3.40
2022-09-06T01:59:40.643Z,3.40
2022-09-06T02:02:14.867Z,3.80
2022-09-06T02:04:47.241Z,3.30
2022-09-06T02:07:22.431Z,3.50
2022-09-06T02:09:58.071Z,3.00
2022-09-06T02:12:30.228Z,3.60
2022-09-06T02:15:05.959Z,4.30
2022-09-06T02:17:39.417Z,3.20
2022-09-06T02:20:13.114Z,3.40
2022-09-06T02:22:46.614Z,3.90
2022-09-06T02:25:22.802Z,3.40
2022-09-06T02:27:51.724Z,3.40
2022-09-06T02:30:20.686Z,3.60
2022-09-06T02:32:55.857Z,3.40
2022-09-06T02:35:25.164Z,3.70
2022-09-06T02:37:55.815Z,3.50
2022-09-06T02:40:25.095Z,3.80
2022-09-06T02:42:54.059Z,4.70
2022-09-06T02:45:22.869Z,4.40
2022-09-06T02:47:51.677Z,4.50
2022-09-06T02:50:20.459Z,4.40
2022-09-06T02:53:02.051Z,4.20
2022-09-06T02:55:31.250Z,4.20
2022-09-06T02:58:00.153Z,4.50
2022-09-06T03:00:29.652Z,3.70
2022-09-06T03:02:58.639Z,4.20
2022-09-06T03:05:28.235Z,3.60
2022-09-06T03:07:57.564Z,3.90
2022-09-06T03:10:26.679Z,3.40
2022-09-06T03:12:55.563Z,4.70
2022-09-06T03:15:24.276Z,4.10
2022-09-06T03:17:58.438Z,3.70
2022-09-06T03:20:27.306Z,4.00
2022-09-06T03:22:56.344Z,3.80
2022-09-06T03:25:25.491Z,4.40
2022-09-06T03:27:57.886Z,3.80
2022-09-06T03:30:26.890Z,3.70
2022-09-06T03:32:55.671Z,4.10
2022-09-06T03:35:24.856Z,3.40
2022-09-06T03:37:53.647Z,3.40
2022-09-06T03:40:22.546Z,3.70
2022-09-06T03:42:51.251Z,3.30
2022-09-06T03:45:20.449Z,2.80
2022-09-06T03:47:49.444Z,3.80
2022-09-06T03:50:18.395Z,3.50
2022-09-06T03:52:47.206Z,3.80
2022-09-06T03:55:16.215Z,4.80
2022-09-06T03:57:45.108Z,4.10
2022-09-06T04:00:16.414Z,3.50
2022-09-06T04:02:45.419Z,3.40
2022-09-06T04:05:15.922Z,3.50
2022-09-06T04:07:44.792Z,3.10
2022-09-06T04:10:13.652Z,3.60
2022-09-06T04:12:43.069Z,3.20
2022-09-06T04:15:12.399Z,3.00
2022-09-06T04:17:45.003Z,3.20
2022-09-06T04:20:14.458Z,3.70
2022-09-06T04:22:43.323Z,3.50
2022-09-06T04:25:13.189Z,3.70
2022-09-06T04:27:42.060Z,3.80
2022-09-06T04:30:11.995Z,3.60
2022-09-06T04:32:41.538Z,3.70
2022-09-06T04:35:10.509Z,3.70
2022-09-06T04:37:39.969Z,3.30
2022-09-06T04:40:10.131Z,3.40
2022-09-06T04:42:39.088Z,3.40
2022-09-06T04:45:10.341Z,3.10
2022-09-06T04:47:39.096Z,3.30
2022-09-06T04:50:09.285Z,3.40
2022-09-06T04:52:38.113Z,3.30
2022-09-06T04:55:08.632Z,2.80
2022-09-06T04:57:42.179Z,2.90
2022-09-06T05:00:15.297Z,3.00
2022-09-06T05:02:44.540Z,3.00
2022-09-06T05:05:13.923Z,3.00
2022-09-06T05:07:42.891Z,3.10
2022-09-06T05:10:11.944Z,3.00
2022-09-06T05:12:44.163Z,2.70
2022-09-06T05:15:13.598Z,3.20
2022-09-06T05:17:42.480Z,3.10
2022-09-06T05:20:12.691Z,3.10
2022-09-06T05:22:41.604Z,3.00
2022-09-06T05:25:11.785Z,2.60
2022-09-06T05:27:40.530Z,3.00
2022-09-06T05:30:12.380Z,3.10
2022-09-06T05:32:41.230Z,2.80
2022-09-06T05:35:10.625Z,3.20
2022-09-06T05:37:39.619Z,3.10
2022-09-06T05:40:10.485Z,2.80
2022-09-06T05:42:40.465Z,2.80
2022-09-06T05:45:10.267Z,2.40
2022-09-06T05:47:39.206Z,3.00
2022-09-06T05:50:10.023Z,2.80
2022-09-06T05:52:39.167Z,2.70
2022-09-06T05:55:09.562Z,2.60
2022-09-06T05:57:38.358Z,2.80
2022-09-06T06:00:11.523Z,2.70
2022-09-06T06:02:40.476Z,2.70
2022-09-06T06:05:09.933Z,2.90
2022-09-06T06:07:38.677Z,2.60
2022-09-06T06:10:08.845Z,3.00
2022-09-06T06:12:37.997Z,2.60
2022-09-06T06:15:08.706Z,3.20
2022-09-06T06:17:37.570Z,2.40
2022-09-06T06:20:08.689Z,2.80
2022-09-06T06:22:38.451Z,2.70
2022-09-06T06:25:08.351Z,3.50
2022-09-06T06:27:37.282Z,2.90
2022-09-06T06:30:08.610Z,3.00
2022-09-06T06:32:37.432Z,3.00
2022-09-06T06:35:09.173Z,2.90
2022-09-06T06:37:38.105Z,2.80
2022-09-06T06:40:09.422Z,3.20
2022-09-06T06:42:38.451Z,3.30
2022-09-06T06:45:09.360Z,3.10
2022-09-06T06:47:38.236Z,3.00
2022-09-06T06:50:08.506Z,3.30
2022-09-06T06:52:37.391Z,2.90
2022-09-06T06:55:07.583Z,3.60
2022-09-06T06:57:36.414Z,2.90
2022-09-06T07:00:07.594Z,3.40
2022-09-06T07:02:36.586Z,3.30
2022-09-06T07:07:55.878Z,3.20
2022-09-06T07:13:01.427Z,3.40
2022-09-06T07:15:30.644Z,3.70
2022-09-06T07:17:59.278Z,3.90
2022-09-06T07:20:28.329Z,3.60
2022-09-06T07:25:50.162Z,3.80
2022-09-06T07:28:18.916Z,3.60
2022-09-06T07:30:47.656Z,3.50
2022-09-06T07:33:16.528Z,3.20
2022-09-06T07:35:55.767Z,3.40
2022-09-06T07:38:24.779Z,3.70
2022-09-06T07:40:58.029Z,3.70
2022-09-06T07:43:28.215Z,3.30
2022-09-06T07:46:04.717Z,3.40
2022-09-06T07:48:35.955Z,3.10
2022-09-06T07:51:07.571Z,3.10
2022-09-06T07:53:37.952Z,2.90
2022-09-06T07:56:08.975Z,3.50
2022-09-06T07:58:39.302Z,3.20
2022-09-06T08:01:32.325Z,2.80
2022-09-06T08:04:03.282Z,2.80
2022-09-06T08:09:23.439Z,3.20
2022-09-06T08:11:52.581Z,3.40
2022-09-06T08:14:21.431Z,3.30
2022-09-06T08:16:50.514Z,3.10
2022-09-06T08:19:19.583Z,3.30
2022-09-06T08:21:49.121Z,3.30
2022-09-06T08:24:17.984Z,3.60
2022-09-06T08:26:46.862Z,3.40
2022-09-06T08:29:15.862Z,3.40
2022-09-06T08:31:46.659Z,3.40
2022-09-06T08:34:15.824Z,3.20
2022-09-06T08:36:46.001Z,3.10
2022-09-06T08:39:16.179Z,4.20
2022-09-06T08:41:51.998Z,3.70
2022-09-06T08:47:14.615Z,3.70
2022-09-06T08:49:45.569Z,3.80
2022-09-06T08:52:31.377Z,3.30
2022-09-06T08:55:12.860Z,3.90
2022-09-06T08:58:01.316Z,3.30
2022-09-06T09:00:31.625Z,3.70
2022-09-06T09:03:07.519Z,3.30
2022-09-06T09:05:38.332Z,2.70
2022-09-06T09:08:20.027Z,3.10
2022-09-06T09:10:53.914Z,3.40
2022-09-06T09:13:30.622Z,3.10
2022-09-06T09:15:59.724Z,3.70
2022-09-06T09:18:33.436Z,3.20
2022-09-06T09:21:02.659Z,4.00
2022-09-06T09:23:31.895Z,3.70
2022-09-06T09:26:04.663Z,3.40
2022-09-06T09:28:35.379Z,4.40
2022-09-06T09:31:04.750Z,3.60
2022-09-06T09:33:38.408Z,3.70
2022-09-06T09:38:42.606Z,5.00
2022-09-06T09:41:24.064Z,4.90
2022-09-06T09:44:04.220Z,4.60
2022-09-06T09:46:35.289Z,4.40
2022-09-06T09:49:07.375Z,4.60
2022-09-06T09:51:37.837Z,4.90
2022-09-06T09:54:08.401Z,4.60
2022-09-06T09:56:49.808Z,4.90
2022-09-06T09:59:27.822Z,4.80
2022-09-06T10:01:59.457Z,4.30
2022-09-06T10:07:18.457Z,4.40
2022-09-06T10:09:49.624Z,4.60
2022-09-06T10:12:28.357Z,4.40
2022-09-06T10:14:57.652Z,4.50
2022-09-06T10:17:37.279Z,4.10
2022-09-06T10:20:10.164Z,4.10
2022-09-06T10:22:51.440Z,3.80
2022-09-06T10:25:38.464Z,4.00
2022-09-06T10:28:28.110Z,3.80
2022-09-06T10:31:08.886Z,3.90
2022-09-06T10:33:50.500Z,4.10
2022-09-06T10:36:26.595Z,3.80
2022-09-06T10:39:03.481Z,3.40
2022-09-06T10:41:52.552Z,3.70
2022-09-06T10:44:38.168Z,3.50
2022-09-06T10:47:11.695Z,3.20
2022-09-06T10:49:44.043Z,4.10
2022-09-06T10:52:18.940Z,3.80
2022-09-06T10:54:48.215Z,4.10
2022-09-06T11:00:13.921Z,3.50
2022-09-06T11:05:44.083Z,3.70
2022-09-06T11:11:15.645Z,3.10
2022-09-06T11:13:44.362Z,3.30
2022-09-06T11:16:19.924Z,3.20
2022-09-06T11:18:55.265Z,2.90
2022-09-06T11:22:01.285Z,2.90
2022-09-06T11:24:43.155Z,2.60
2022-09-06T11:29:47.662Z,2.80
2022-09-06T11:32:34.139Z,2.80
2022-09-06T11:35:09.363Z,2.60
2022-09-06T11:37:42.327Z,2.60
2022-09-06T11:43:12.308Z,2.30
2022-09-06T11:45:45.023Z,2.40
2022-09-06T11:48:36.805Z,2.50
2022-09-06T11:51:10.229Z,2.50
2022-09-06T11:54:22.409Z,2.80
2022-09-06T11:56:59.455Z,2.30
2022-09-06T11:59:41.361Z,2.80
2022-09-06T12:05:25.912Z,2.60
2022-09-06T12:08:33.650Z,2.50
2022-09-06T12:11:30.093Z,2.50
2022-09-06T12:14:03.228Z,3.00
2022-09-06T12:17:22.506Z,3.30
2022-09-06T12:19:52.644Z,2.60
2022-09-06T12:23:03.233Z,3.10
2022-09-06T12:25:55.827Z,3.00
2022-09-06T12:28:34.127Z,3.10
2022-09-06T12:31:24.504Z,3.00
2022-09-06T12:33:54.447Z,3.00
2022-09-06T12:36:29.866Z,3.00
2022-09-06T12:39:01.016Z,2.90
2022-09-06T12:41:32.258Z,2.90
2022-09-06T12:44:03.778Z,2.80
2022-09-06T12:46:34.029Z,2.90
2022-09-06T12:49:06.121Z,2.60
2022-09-06T12:51:35.504Z,2.80
2022-09-06T12:54:16.891Z,2.70
2022-09-06T12:56:45.865Z,2.60
2022-09-06T12:59:17.064Z,2.90
2022-09-06T13:01:52.934Z,2.70
2022-09-06T13:04:31.676Z,2.90
2022-09-06T13:07:03.755Z,2.80
2022-09-06T13:09:33.604Z,2.70
2022-09-06T13:12:07.301Z,2.70
2022-09-06T13:14:36.472Z,2.80
2022-09-06T13:17:05.624Z,2.70
2022-09-06T13:19:36.884Z,2.60
2022-09-06T13:22:10.317Z,2.70
2022-09-06T13:24:47.431Z,2.70
2022-09-06T13:27:32.716Z,2.40
2022-09-06T13:30:06.135Z,2.40
2022-09-06T13:32:36.495Z,2.30
2022-09-06T13:35:06.939Z,2.30
2022-09-06T13:37:38.939Z,2.00
2022-09-06T13:40:59.955Z,2.20
2022-09-06T13:43:29.196Z,2.90
2022-09-06T13:46:06.520Z,2.30
2022-09-06T13:48:35.751Z,2.10
2022-09-06T13:51:07.215Z,3.40
2022-09-06T13:53:36.332Z,2.50
2022-09-06T13:56:07.986Z,2.30
2022-09-06T13:58:36.761Z,2.50
2022-09-06T14:01:08.023Z,2.10
2022-09-06T14:03:40.167Z,2.40
2022-09-06T14:06:09.786Z,2.30
2022-09-06T14:09:03.260Z,2.30
2022-09-06T14:11:28.228Z,2.50
2022-09-06T14:13:56.955Z,2.20
2022-09-06T14:16:25.740Z,2.40
2022-09-06T14:18:54.320Z,2.80
2022-09-06T14:21:23.168Z,2.50
2022-09-06T14:23:52.783Z,2.40
2022-09-06T14:26:22.594Z,2.50
2022-09-06T14:28:51.804Z,2.70
2022-09-06T14:31:22.699Z,2.40
2022-09-06T14:33:51.739Z,2.30
2022-09-06T14:36:22.144Z,2.40
2022-09-06T14:38:51.085Z,2.50
2022-09-06T14:41:20.487Z,2.50
2022-09-06T14:43:51.567Z,2.40
2022-09-06T14:46:22.574Z,2.60
2022-09-06T14:48:57.996Z,2.50
2022-09-06T14:51:26.963Z,2.70
2022-09-06T14:53:58.291Z,2.30
2022-09-06T14:56:27.287Z,2.30
2022-09-06T14:58:57.299Z,2.30
2022-09-06T15:01:28.313Z,2.60
2022-09-06T15:03:59.152Z,1.70
2022-09-06T15:06:29.288Z,2.50
2022-09-06T15:08:59.511Z,2.20
2022-09-06T15:11:29.856Z,1.80
2022-09-06T15:13:58.878Z,2.10
2022-09-06T15:16:27.791Z,2.20
2022-09-06T15:18:56.418Z,2.20
2022-09-06T15:21:26.072Z,2.00
2022-09-06T15:23:56.965Z,2.00
2022-09-06T15:26:25.830Z,2.10
2022-09-06T15:28:59.546Z,2.10
2022-09-06T15:31:33.583Z,2.30
2022-09-06T15:34:17.929Z,1.80
2022-09-06T15:36:46.819Z,2.10
2022-09-06T15:39:25.005Z,1.90
2022-09-06T15:41:53.835Z,2.00
2022-09-06T15:44:22.465Z,2.20
2022-09-06T15:46:54.424Z,2.10
2022-09-06T15:52:00.242Z,1.90
2022-09-06T15:54:50.801Z,1.90
2022-09-06T15:57:22.004Z,2.10
2022-09-06T15:59:50.925Z,1.80
2022-09-06T16:02:19.626Z,1.60
2022-09-06T16:04:48.447Z,1.90
2022-09-06T16:07:19.593Z,1.90
2022-09-06T16:09:50.077Z,1.90
2022-09-06T16:12:18.721Z,2.20
2022-09-06T16:14:48.575Z,2.10
2022-09-06T16:17:17.350Z,2.20
2022-09-06T16:19:46.041Z,2.10
2022-09-06T16:22:14.692Z,2.10
2022-09-06T16:24:43.343Z,2.40
2022-09-06T16:27:11.970Z,1.90
2022-09-06T16:29:41.287Z,2.00
2022-09-06T16:32:09.985Z,2.20
2022-09-06T16:34:39.191Z,1.90
2022-09-06T16:37:07.993Z,2.00
2022-09-06T16:39:37.028Z,2.10
2022-09-06T16:42:06.028Z,2.00
2022-09-06T16:44:34.681Z,2.00
2022-09-06T16:47:04.591Z,2.00
2022-09-06T16:49:33.242Z,3.10
2022-09-06T16:52:02.356Z,2.10
2022-09-06T16:54:31.224Z,2.00
2022-09-06T16:57:01.185Z,1.90
2022-09-06T16:59:29.863Z,2.10
2022-09-06T17:01:58.620Z,2.10
2022-09-06T17:04:27.483Z,1.90
2022-09-06T17:06:56.292Z,1.90
2022-09-06T17:09:25.186Z,2.40
2022-09-06T17:11:54.594Z,2.10
2022-09-06T17:14:23.214Z,2.50
2022-09-06T17:17:04.381Z,2.80
2022-09-06T17:19:36.430Z,2.60
2022-09-06T17:22:06.053Z,2.50
2022-09-06T17:24:36.319Z,3.20
2022-09-06T17:27:06.623Z,2.90
2022-09-06T17:29:35.672Z,2.70
2022-09-06T17:32:09.414Z,3.20
2022-09-06T17:34:39.399Z,3.00
2022-09-06T17:37:08.407Z,2.90
2022-09-06T17:39:37.908Z,2.70
2022-09-06T17:42:08.126Z,2.70
2022-09-06T17:44:37.469Z,2.70
2022-09-06T17:47:14.553Z,2.50
2022-09-06T17:49:43.718Z,2.60
2022-09-06T17:52:13.350Z,2.50
2022-09-06T17:54:43.445Z,2.30
2022-09-06T17:57:12.498Z,2.80
2022-09-06T17:59:41.461Z,2.70
2022-09-06T18:02:10.555Z,2.80
2022-09-06T18:04:39.723Z,2.70
2022-09-06T18:07:08.510Z,2.50
2022-09-06T18:09:37.919Z,2.90
2022-09-06T18:12:08.018Z,3.10
2022-09-06T18:14:37.337Z,2.80
2022-09-06T18:17:08.242Z,2.90
2022-09-06T18:19:38.144Z,2.80
2022-09-06T18:22:08.268Z,2.70
2022-09-06T18:24:37.912Z,2.90
2022-09-06T18:27:06.992Z,3.40
2022-09-06T18:29:40.025Z,3.10
2022-09-06T18:32:09.696Z,3.30
2022-09-06T18:34:39.134Z,3.40
2022-09-06T18:37:08.802Z,3.10
2022-09-06T18:39:42.113Z,3.90
2022-09-06T18:42:12.977Z,3.70
2022-09-06T18:44:44.106Z,3.30
2022-09-06T18:47:14.290Z,4.00
2022-09-06T18:49:44.592Z,3.90
2022-09-06T18:52:15.283Z,3.90
2022-09-06T18:54:45.801Z,3.80
2022-09-06T18:57:16.773Z,3.70
2022-09-06T18:59:49.027Z,3.80
2022-09-06T19:02:22.940Z,3.60
2022-09-06T19:04:55.497Z,3.90
2022-09-06T19:07:28.546Z,4.30
2022-09-06T19:10:00.820Z,4.00
2022-09-06T19:12:31.917Z,3.80
2022-09-06T19:15:05.081Z,3.50
2022-09-06T19:17:40.752Z,3.20
2022-09-06T19:20:13.028Z,3.60
2022-09-06T19:22:43.888Z,3.90
2022-09-06T19:25:17.315Z,3.20
2022-09-06T19:27:49.687Z,3.80
2022-09-06T19:30:23.412Z,3.40
2022-09-06T19:32:54.111Z,3.40
2022-09-06T19:35:29.841Z,3.50
2022-09-06T19:38:03.621Z,3.90
2022-09-06T19:40:35.425Z,4.20
2022-09-06T19:43:10.127Z,4.20
2022-09-06T19:45:43.523Z,3.60
2022-09-06T19:48:18.573Z,4.00
2022-09-06T19:50:48.680Z,4.20
2022-09-06T19:53:27.479Z,4.30
2022-09-06T19:55:58.413Z,4.30
2022-09-06T19:58:29.171Z,4.70
2022-09-06T20:00:59.324Z,4.80
2022-09-06T20:03:40.738Z,4.50
2022-09-06T20:06:14.135Z,5.00
2022-09-06T20:08:44.061Z,6.10
2022-09-06T20:11:13.262Z,7.00
2022-09-06T20:13:43.312Z,5.70
2022-09-06T20:16:13.061Z,6.80
2022-09-06T20:18:42.427Z,6.20
2022-09-06T20:21:13.283Z,6.20
2022-09-06T20:23:42.006Z,6.50
2022-09-06T20:26:12.893Z,6.80
2022-09-06T20:28:43.499Z,5.50
2022-09-06T20:31:14.900Z,5.80
2022-09-06T20:33:48.714Z,5.40
2022-09-06T20:36:20.709Z,5.70
2022-09-06T20:38:50.328Z,4.70
2022-09-06T20:41:20.856Z,4.70
2022-09-06T20:43:52.597Z,4.70
2022-09-06T20:46:24.081Z,4.70
2022-09-06T20:48:55.011Z,4.60
2022-09-06T20:51:24.706Z,5.00
2022-09-06T20:53:54.690Z,4.40
2022-09-06T20:56:30.233Z,4.30
2022-09-06T20:59:02.017Z,4.70
2022-09-06T21:01:34.135Z,4.20
2022-09-06T21:06:33.943Z,4.90
2022-09-06T21:09:03.319Z,5.40
2022-09-06T21:11:32.588Z,5.20
2022-09-06T21:14:01.183Z,5.10
2022-09-06T21:16:30.571Z,6.00
2022-09-06T21:19:02.817Z,4.90
2022-09-06T21:21:32.007Z,4.60
2022-09-06T21:24:02.532Z,4.60
2022-09-06T21:26:31.613Z,4.70
2022-09-06T21:29:00.949Z,4.40
2022-09-06T21:31:31.151Z,4.10
2022-09-06T21:34:02.935Z,4.50
2022-09-06T21:36:34.188Z,3.60
2022-09-06T21:39:06.270Z,4.10
2022-09-06T21:44:04.600Z,3.70
2022-09-06T21:46:35.805Z,3.40
2022-09-06T21:49:06.864Z,3.90
2022-09-06T21:51:36.697Z,4.10
2022-09-06T21:54:06.592Z,3.70
2022-09-06T21:56:37.037Z,3.50
2022-09-06T21:59:06.367Z,3.90
2022-09-06T22:01:36.943Z,3.60
2022-09-06T22:04:06.697Z,3.60
2022-09-06T22:06:37.191Z,3.90
2022-09-06T22:09:10.255Z,3.40
2022-09-06T22:11:40.536Z,3.10
2022-09-06T22:14:11.439Z,3.60
2022-09-06T22:16:41.030Z,3.30
2022-09-06T22:19:10.755Z,3.20
2022-09-06T22:21:39.651Z,3.40
2022-09-06T22:24:09.797Z,3.60
2022-09-06T22:26:40.147Z,3.40
2022-09-06T22:29:10.847Z,3.60
2022-09-06T22:31:40.564Z,3.90
2022-09-06T22:34:10.201Z,3.70
2022-09-06T22:36:38.960Z,3.50
2022-09-06T22:39:08.911Z,4.40
2022-09-06T22:41:37.974Z,4.20
2022-09-06T22:44:07.061Z,3.70
2022-09-06T22:46:36.988Z,3.90
2022-09-06T22:49:06.280Z,3.90
2022-09-06T22:51:34.970Z,3.90
2022-09-06T22:54:04.384Z,3.70
2022-09-06T22:56:33.318Z,4.30
2022-09-06T22:59:02.484Z,3.90
2022-09-06T23:01:32.265Z,4.30
2022-09-06T23:04:01.578Z,4.00
2022-09-06T23:06:30.216Z,4.10
2022-09-06T23:08:59.356Z,3.90
2022-09-06T23:11:28.307Z,3.70
2022-09-06T23:13:57.803Z,3.60
2022-09-06T23:16:27.794Z,3.70
2022-09-06T23:18:56.467Z,3.70
2022-09-06T23:21:26.116Z,3.50
2022-09-06T23:23:56.742Z,3.80
2022-09-06T23:26:28.093Z,3.80
2022-09-06T23:28:57.230Z,3.90
2022-09-06T23:31:28.728Z,3.40
2022-09-06T23:33:59.124Z,4.20
2022-09-06T23:36:28.286Z,3.40
2022-09-06T23:38:57.358Z,3.50
2022-09-06T23:41:26.046Z,3.50
2022-09-06T23:43:54.937Z,3.10
2022-09-06T23:46:23.671Z,3.80
2022-09-06T23:48:52.536Z,3.80
2022-09-06T23:51:21.579Z,3.70
2022-09-06T23:53:50.248Z,3.40
2022-09-06T23:56:20.211Z,3.20
2022-09-06T23:58:48.985Z,4.10
